Time;durP1;ratioP1;P1;durP2;ratioP2;P2;SDS_P1;SDS_P2;PMS_P1;PMS_P2;Temp;Humidity;BMP_temperature;BMP_pressure;BME280_temperature;BME280_humidity;BME280_pressure;Samples;Min_cycle;Max_cycle;Signal;HPM_P1;HPM_P2
2021/07/13 00:01:22;;;;;;;9.32;7.82;;;;;;;29.90;43.25;99251.41;4500468;31;33581;-65
2021/07/13 00:03:51;;;;;;;11.05;8.50;;;;;;;29.89;43.31;99244.22;4500427;31;33599;-65
2021/07/13 00:06:19;;;;;;;11.27;7.43;;;;;;;29.88;43.34;99250.84;4500647;31;34006;-65
2021/07/13 00:08:51;;;;;;;12.43;7.43;;;;;;;29.88;43.34;99257.16;4500415;31;33169;-65
2021/07/13 00:11:19;;;;;;;9.70;7.70;;;;;;;29.88;43.36;99256.34;4500354;31;33755;-65
2021/07/13 00:13:47;;;;;;;11.57;7.87;;;;;;;29.88;43.28;99259.09;4500466;31;34964;-65
2021/07/13 00:16:15;;;;;;;10.77;8.40;;;;;;;29.86;43.26;99253.87;4500408;31;34309;-65
2021/07/13 00:18:43;;;;;;;10.82;8.20;;;;;;;29.86;43.28;99261.31;4500232;31;33707;-65
2021/07/13 00:21:10;;;;;;;8.57;7.65;;;;;;;29.86;43.31;99253.87;4500284;31;33971;-65
2021/07/13 00:23:37;;;;;;;10.18;8.35;;;;;;;29.87;43.29;99257.47;4500409;31;34071;-65
2021/07/13 00:26:05;;;;;;;9.32;7.75;;;;;;;29.86;43.28;99258.56;4500296;31;34480;-65
2021/07/13 00:28:33;;;;;;;11.57;8.73;;;;;;;29.86;43.28;99258.56;4500368;31;33418;-65
2021/07/13 00:31:01;;;;;;;17.40;8.57;;;;;;;29.86;43.29;99262.13;4500364;31;34984;-65
2021/07/13 00:33:29;;;;;;;9.23;7.97;;;;;;;29.85;43.33;99249.50;4500229;31;33768;-65
2021/07/13 00:36:03;;;;;;;15.25;8.15;;;;;;;29.86;43.34;99253.87;4500305;31;34040;-65
2021/07/13 00:38:31;;;;;;;11.52;8.20;;;;;;;29.86;43.29;99250.31;4500075;31;33555;-65
2021/07/13 00:40:58;;;;;;;9.80;8.18;;;;;;;29.85;43.28;99241.25;4500234;31;34528;-65
2021/07/13 00:43:26;;;;;;;12.80;7.93;;;;;;;29.83;43.31;99240.69;4500291;31;35023;-65
2021/07/13 00:45:53;;;;;;;16.15;8.23;;;;;;;29.84;43.33;99233.25;4500079;31;33875;-65
2021/07/13 00:48:21;;;;;;;11.23;8.23;;;;;;;29.82;43.37;99233.56;4500201;31;34320;-65
2021/07/13 00:50:49;;;;;;;9.55;8.20;;;;;;;29.83;43.39;99234.38;4486057;31;34562;-65
2021/07/13 00:53:16;;;;;;;12.07;8.27;;;;;;;29.83;43.40;99240.69;4485367;31;34921;-65
2021/07/13 00:55:44;;;;;;;9.48;8.15;;;;;;;29.83;43.40;99237.13;4467629;32;33890;-65
2021/07/13 00:58:11;;;;;;;9.95;7.43;;;;;;;29.82;43.35;99227.25;4484158;32;33479;-65
2021/07/13 01:00:39;;;;;;;10.23;8.02;;;;;;;29.82;43.30;99236.31;4484260;32;34703;-65
2021/07/13 01:03:06;;;;;;;12.48;8.85;;;;;;;29.81;43.34;99236.59;4484605;32;34041;-65
2021/07/13 01:05:54;;;;;;;10.10;7.57;;;;;;;29.81;43.34;99242.91;4470333;32;34827;-65
2021/07/13 01:08:36;;;;;;;10.57;7.65;;;;;;;29.84;43.26;99249.75;4484517;32;33491;-65
2021/07/13 01:11:20;;;;;;;10.80;7.82;;;;;;;29.81;43.35;99244.84;4484306;32;34345;-65
2021/07/13 01:14:17;;;;;;;15.30;8.48;;;;;;;29.82;43.30;99240.97;4484280;32;33999;-65
2021/07/13 01:16:51;;;;;;;8.85;7.80;;;;;;;29.82;43.25;99235.47;4478724;32;33863;-65
2021/07/13 01:20:04;;;;;;;14.73;9.25;;;;;;;29.80;43.30;99233.03;4484086;32;34200;-65
2021/07/13 01:22:36;;;;;;;11.93;8.32;;;;;;;29.81;43.28;99233.84;4481370;32;33814;-65
2021/07/13 01:25:07;;;;;;;10.80;8.38;;;;;;;29.78;43.34;99232.47;4470261;32;33988;-65
2021/07/13 01:27:48;;;;;;;10.43;7.95;;;;;;;29.78;43.34;99237.16;4484285;32;34053;-65
2021/07/13 01:30:19;;;;;;;13.55;7.90;;;;;;;29.77;43.33;99230.84;4483930;32;34218;-65
2021/07/13 01:32:53;;;;;;;12.95;8.00;;;;;;;29.76;43.28;99231.94;4483944;32;34657;-65
2021/07/13 01:35:28;;;;;;;13.75;8.93;;;;;;;29.77;43.25;99227.25;4470043;32;34910;-65
2021/07/13 01:37:56;;;;;;;11.88;8.00;;;;;;;29.76;43.22;99220.12;4469735;32;33908;-65
2021/07/13 01:40:23;;;;;;;10.30;8.50;;;;;;;29.75;43.18;99216.53;4469583;32;34356;-65
2021/07/13 01:42:51;;;;;;;10.60;8.10;;;;;;;29.75;43.15;99213.78;4456778;32;34665;-65
2021/07/13 01:45:18;;;;;;;12.88;8.38;;;;;;;29.74;43.09;99210.22;4469604;32;34911;-65
2021/07/13 01:47:46;;;;;;;10.25;8.02;;;;;;;29.75;43.05;99213.78;4469693;32;34154;-65
2021/07/13 01:50:39;;;;;;;9.07;7.90;;;;;;;30.33;42.04;99208.50;4524061;31;122318;-64
2021/07/13 01:53:07;;;;;;;10.48;8.25;;;;;;;30.33;42.04;99208.50;4496022;31;32897;-63
2021/07/13 01:55:34;;;;;;;11.63;7.75;;;;;;;29.75;42.90;99205.53;4481932;32;33501;-63
2021/07/13 01:58:02;;;;;;;10.73;8.15;;;;;;;29.74;42.94;99206.63;4482015;32;35330;-63
2021/07/13 02:00:30;;;;;;;8.93;7.65;;;;;;;29.72;42.92;99204.19;4496458;32;34377;-64
2021/07/13 02:02:58;;;;;;;9.70;8.32;;;;;;;29.73;42.90;99203.06;4481944;32;33445;-64
2021/07/13 02:05:26;;;;;;;11.52;8.25;;;;;;;29.73;42.88;99213.25;4493627;32;33866;-66
2021/07/13 02:07:57;;;;;;;9.23;8.05;;;;;;;29.72;42.85;99204.19;4494542;32;34098;-66
2021/07/13 02:10:24;;;;;;;9.60;7.70;;;;;;;29.72;42.83;99209.69;4496103;32;33809;-65
2021/07/13 02:12:52;;;;;;;9.30;7.82;;;;;;;29.73;42.80;99210.50;4481855;31;33385;-65
2021/07/13 02:15:21;;;;;;;10.32;8.63;;;;;;;29.72;42.81;99208.87;4496215;32;34200;-66
2021/07/13 02:17:51;;;;;;;8.90;7.43;;;;;;;29.71;42.80;99205.28;4496003;32;34829;-66
2021/07/13 02:20:20;;;;;;;9.10;8.20;;;;;;;29.71;42.82;99213.53;4494802;32;33800;-66
2021/07/13 02:22:48;;;;;;;10.43;8.48;;;;;;;29.71;42.87;99207.22;4494779;31;34209;-66
2021/07/13 02:25:15;;;;;;;12.52;8.63;;;;;;;29.71;42.80;99208.03;4495680;31;34583;-65
2021/07/13 02:28:01;;;;;;;11.68;8.23;;;;;;;29.70;42.83;99206.41;4495918;32;34134;-65
2021/07/13 02:30:29;;;;;;;9.65;8.38;;;;;;;29.72;42.86;99203.38;4494661;31;33775;-65
2021/07/13 02:33:00;;;;;;;9.05;8.15;;;;;;;29.70;42.75;99203.66;4496063;31;33325;-66
2021/07/13 02:35:33;;;;;;;9.63;7.93;;;;;;;29.69;42.70;99213.00;4494854;32;33947;-66
2021/07/13 02:38:04;;;;;;;9.38;8.48;;;;;;;29.70;42.77;99211.06;4494759;31;33962;-65
2021/07/13 02:40:31;;;;;;;10.60;8.35;;;;;;;29.69;42.77;99217.66;4494646;31;33702;-66
2021/07/13 02:42:58;;;;;;;11.35;8.02;;;;;;;29.69;42.75;99215.75;4494967;32;33955;-66
2021/07/13 02:45:26;;;;;;;10.60;8.15;;;;;;;29.70;42.82;99211.06;4481743;32;33884;-65
2021/07/13 02:47:55;;;;;;;10.80;8.00;;;;;;;29.70;42.84;99211.06;4481504;32;34098;-66
2021/07/13 02:50:23;;;;;;;11.68;7.97;;;;;;;29.68;42.89;99208.59;4480820;32;33834;-65
2021/07/13 02:52:51;;;;;;;12.32;8.30;;;;;;;29.69;42.88;99203.91;4494498;32;33329;-65
2021/07/13 02:55:20;;;;;;;10.75;8.40;;;;;;;29.67;42.86;99209.72;4481540;32;33902;-66
2021/07/13 02:57:49;;;;;;;9.55;8.52;;;;;;;29.68;42.89;99213.28;4494602;32;34615;-66
2021/07/13 03:00:18;;;;;;;11.50;8.10;;;;;;;29.68;42.94;99211.34;4489544;31;34004;-64
2021/07/13 03:02:49;;;;;;;10.43;7.97;;;;;;;29.68;42.88;99218.78;4484049;32;33895;-63
2021/07/13 03:05:18;;;;;;;11.00;8.73;;;;;;;29.67;42.92;99222.63;4472758;32;33960;-63
2021/07/13 03:07:49;;;;;;;13.00;8.57;;;;;;;29.66;42.99;99221.81;4483998;32;33758;-64
2021/07/13 03:10:23;;;;;;;13.52;8.35;;;;;;;29.66;43.00;99221.81;4483933;32;34820;-64
2021/07/13 03:12:52;;;;;;;10.93;8.77;;;;;;;29.67;43.00;99214.38;4485167;32;34543;-64
2021/07/13 03:15:21;;;;;;;10.05;8.98;;;;;;;29.66;42.94;99213.56;4485042;32;34420;-64
2021/07/13 03:17:48;;;;;;;10.65;8.68;;;;;;;29.65;42.92;99211.09;4466764;32;34904;-63
2021/07/13 03:20:16;;;;;;;11.98;8.35;;;;;;;29.66;42.94;99215.50;4468491;32;34501;-64
2021/07/13 03:22:45;;;;;;;12.43;8.00;;;;;;;29.65;43.01;99202.84;4469245;32;33486;-64
2021/07/13 03:25:15;;;;;;;11.80;8.77;;;;;;;29.64;43.01;99207.50;4468254;32;34107;-63
2021/07/13 03:27:43;;;;;;;9.52;8.52;;;;;;;29.65;42.96;99200.09;4468222;32;34901;-64
2021/07/13 03:30:11;;;;;;;13.68;8.35;;;;;;;29.65;42.92;99198.16;4455176;32;33960;-63
2021/07/13 03:32:39;;;;;;;10.13;8.52;;;;;;;29.64;42.86;99199.28;4468420;32;34206;-64
2021/07/13 03:35:07;;;;;;;10.90;8.07;;;;;;;29.63;42.84;99197.62;4455474;32;34632;-64
2021/07/13 03:37:34;;;;;;;10.23;8.57;;;;;;;29.63;42.83;99194.88;4455200;32;34037;-64
2021/07/13 03:40:03;;;;;;;11.12;8.75;;;;;;;29.64;42.81;99207.50;4469302;32;33865;-64
2021/07/13 03:42:31;;;;;;;10.13;8.90;;;;;;;29.64;42.78;99198.44;4468129;32;33543;-64
2021/07/13 03:44:58;;;;;;;10.68;8.25;;;;;;;29.65;42.74;99206.41;4467916;32;34866;-64
2021/07/13 03:47:26;;;;;;;11.18;9.13;;;;;;;29.65;42.75;99200.09;4467957;32;34277;-64
2021/07/13 03:49:53;;;;;;;9.95;8.57;;;;;;;29.65;42.72;99200.91;4468983;32;33809;-64
2021/07/13 03:52:21;;;;;;;10.25;9.15;;;;;;;29.64;42.71;99193.78;4469021;32;34264;-64
2021/07/13 03:54:49;;;;;;;9.75;8.75;;;;;;;29.65;42.70;99200.09;4476487;32;33583;-64
2021/07/13 03:57:16;;;;;;;12.95;9.52;;;;;;;29.64;42.67;99199.28;4484947;32;33942;-64
2021/07/13 03:59:44;;;;;;;10.52;8.52;;;;;;;29.64;42.65;99198.44;4484679;32;33645;-64
2021/07/13 04:02:11;;;;;;;11.10;8.88;;;;;;;29.62;42.64;99198.75;4484875;32;34106;-64
2021/07/13 04:04:39;;;;;;;10.50;8.43;;;;;;;29.63;42.63;99200.37;4484867;32;33864;-64
2021/07/13 04:07:09;;;;;;;12.43;9.48;;;;;;;29.65;42.62;99205.59;4484787;32;33840;-63
2021/07/13 04:09:36;;;;;;;12.10;8.43;;;;;;;29.65;42.61;99203.66;4470651;32;33843;-64
2021/07/13 04:12:04;;;;;;;10.43;9.00;;;;;;;29.64;42.64;99202.03;4483627;32;34143;-64
2021/07/13 04:14:32;;;;;;;11.48;8.70;;;;;;;29.62;42.65;99201.50;4484722;32;34182;-64
2021/07/13 04:16:59;;;;;;;11.85;8.93;;;;;;;29.63;42.66;99210.56;4484774;32;34826;-63
2021/07/13 04:19:27;;;;;;;14.48;10.20;;;;;;;29.63;42.65;99205.88;4484620;32;33723;-63
2021/07/13 04:21:55;;;;;;;10.73;9.00;;;;;;;29.63;42.68;99213.31;4484804;32;33193;-63
2021/07/13 04:24:22;;;;;;;11.93;8.52;;;;;;;29.63;42.71;99219.62;4484674;32;33864;-63
2021/07/13 04:26:50;;;;;;;11.98;9.75;;;;;;;29.62;42.70;99211.66;4484863;32;33701;-64
2021/07/13 04:29:17;;;;;;;10.63;8.77;;;;;;;29.62;42.69;99220.72;4484607;32;33405;-64
2021/07/13 04:31:45;;;;;;;11.57;8.43;;;;;;;29.62;42.70;99222.66;4484623;32;34081;-64
2021/07/13 04:34:13;;;;;;;10.90;8.90;;;;;;;29.61;42.69;99219.09;4484443;32;34702;-64
2021/07/13 04:36:41;;;;;;;12.07;9.15;;;;;;;29.61;42.74;99221.84;4484621;32;34112;-63
2021/07/13 04:39:09;;;;;;;11.80;9.50;;;;;;;29.61;42.78;99219.09;4484581;32;34080;-64
2021/07/13 04:41:36;;;;;;;10.27;9.27;;;;;;;29.61;42.80;99218.25;4484433;32;34192;-64
2021/07/13 04:44:04;;;;;;;12.05;8.90;;;;;;;29.61;42.81;99221.00;4484536;32;33768;-64
2021/07/13 04:46:31;;;;;;;15.13;9.75;;;;;;;29.61;42.90;99216.34;4484555;32;33670;-64
2021/07/13 04:48:59;;;;;;;11.77;9.20;;;;;;;29.60;42.89;99213.84;4484196;32;33751;-64
2021/07/13 04:51:27;;;;;;;12.75;9.55;;;;;;;29.60;42.88;99211.09;4484389;31;33450;-64
2021/07/13 04:53:54;;;;;;;13.27;9.57;;;;;;;29.60;42.92;99211.94;4484464;32;34617;-64
2021/07/13 04:56:22;;;;;;;12.35;8.93;;;;;;;29.60;42.91;99211.94;4484281;32;34092;-64
2021/07/13 04:58:49;;;;;;;10.55;9.38;;;;;;;29.60;42.96;99211.09;4484438;32;34623;-64
2021/07/13 05:01:17;;;;;;;14.70;9.27;;;;;;;29.61;42.94;99212.75;4484380;32;33733;-64
2021/07/13 05:03:44;;;;;;;12.43;9.32;;;;;;;29.60;42.99;99214.69;4484180;32;33868;-64
2021/07/13 05:06:14;;;;;;;11.88;8.93;;;;;;;29.59;43.04;99221.28;4484357;32;33961;-63
2021/07/13 05:08:42;;;;;;;13.93;9.48;;;;;;;29.60;43.08;99217.44;4484276;32;34031;-63
2021/07/13 05:11:10;;;;;;;14.77;9.20;;;;;;;29.60;43.12;99216.59;4484160;32;33445;-64
2021/07/13 05:13:38;;;;;;;13.80;8.80;;;;;;;29.59;43.17;99210.28;4484268;32;33622;-63
2021/07/13 05:16:05;;;;;;;11.45;9.27;;;;;;;29.60;43.15;99220.19;4484280;32;34212;-63
2021/07/13 05:18:35;;;;;;;13.35;9.68;;;;;;;29.60;43.18;99216.59;4484145;32;33729;-64
2021/07/13 05:21:05;;;;;;;11.15;8.82;;;;;;;29.60;43.19;99211.94;4484204;32;33401;-64
2021/07/13 05:23:33;;;;;;;10.20;9.07;;;;;;;29.61;43.13;99213.59;4484153;32;33855;-63
2021/07/13 05:26:00;;;;;;;14.43;10.30;;;;;;;29.61;43.20;99218.25;4483946;32;34861;-63
2021/07/13 05:28:28;;;;;;;14.93;9.95;;;;;;;29.59;43.33;99213.03;4484087;32;34026;-63
2021/07/13 05:30:55;;;;;;;11.32;9.93;;;;;;;29.60;43.37;99213.84;4484036;32;33375;-63
2021/07/13 05:33:23;;;;;;;14.80;10.45;;;;;;;29.59;43.41;99206.72;4483846;32;34074;-64
2021/07/13 05:35:50;;;;;;;14.38;10.20;;;;;;;29.59;43.39;99201.22;4483950;32;34533;-64
2021/07/13 05:38:18;;;;;;;14.27;10.05;;;;;;;29.60;43.30;99194.63;4484029;32;33882;-63
2021/07/13 05:40:46;;;;;;;11.85;9.40;;;;;;;29.60;43.37;99205.63;4483828;32;33723;-64
2021/07/13 05:43:13;;;;;;;12.95;10.15;;;;;;;29.61;43.36;99207.25;4483958;32;33938;-63
2021/07/13 05:45:41;;;;;;;11.20;9.77;;;;;;;29.61;43.45;99205.34;4483837;32;35395;-63
2021/07/13 05:48:09;;;;;;;12.93;9.88;;;;;;;29.60;43.45;99206.44;4483582;32;34334;-64
2021/07/13 05:50:37;;;;;;;14.55;10.25;;;;;;;29.61;43.47;99208.09;4483651;32;35349;-64
2021/07/13 05:53:04;;;;;;;13.50;10.27;;;;;;;29.62;43.44;99217.16;4483723;32;34654;-63
2021/07/13 05:55:32;;;;;;;13.35;9.77;;;;;;;29.62;43.54;99222.66;4483606;32;34115;-63
2021/07/13 05:57:59;;;;;;;12.93;8.90;;;;;;;29.62;43.48;99222.66;4483683;32;34438;-64
2021/07/13 06:00:27;;;;;;;11.80;9.98;;;;;;;29.61;43.47;99224.59;4484042;32;33935;-63
2021/07/13 06:02:54;;;;;;;16.20;9.85;;;;;;;29.63;43.38;99218.81;4483398;32;33611;-64
2021/07/13 06:05:22;;;;;;;11.85;9.48;;;;;;;29.62;43.48;99222.66;4483617;32;34280;-64
2021/07/13 06:07:49;;;;;;;14.32;10.15;;;;;;;29.60;43.51;99222.94;4483625;32;34004;-64
2021/07/13 06:10:17;;;;;;;13.88;9.90;;;;;;;29.61;43.51;99227.34;4483689;32;33177;-63
2021/07/13 06:12:45;;;;;;;11.45;9.68;;;;;;;29.62;43.52;99222.66;4482309;32;34046;-63
2021/07/13 06:15:13;;;;;;;14.85;10.18;;;;;;;29.61;43.54;99224.59;4483650;32;34091;-64
2021/07/13 06:17:41;;;;;;;12.57;9.68;;;;;;;29.62;43.55;99222.66;4483488;32;33891;-63
2021/07/13 06:20:09;;;;;;;11.40;9.90;;;;;;;29.63;43.51;99227.06;4483502;32;34173;-64
2021/07/13 06:22:37;;;;;;;13.27;9.95;;;;;;;29.64;43.49;99223.19;4483194;32;33604;-64
2021/07/13 06:25:05;;;;;;;18.95;9.90;;;;;;;29.62;43.60;99225.41;4483318;32;34119;-63
2021/07/13 06:27:33;;;;;;;12.48;10.25;;;;;;;29.64;43.63;99223.19;4483298;32;33884;-64
2021/07/13 06:30:00;;;;;;;11.95;10.32;;;;;;;29.62;43.67;99215.25;4482841;32;33548;-63
2021/07/13 06:32:28;;;;;;;12.10;10.32;;;;;;;29.62;43.67;99226.22;4483052;32;34760;-64
2021/07/13 06:34:55;;;;;;;20.75;10.73;;;;;;;29.62;43.66;99219.91;4482878;32;34079;-64
2021/07/13 06:37:23;;;;;;;18.30;10.25;;;;;;;29.64;43.78;99213.00;4485236;32;33886;-64
2021/07/13 06:39:51;;;;;;;13.45;10.30;;;;;;;29.64;43.83;99215.75;4484259;32;33969;-64
2021/07/13 06:42:18;;;;;;;12.05;10.45;;;;;;;29.64;43.87;99204.75;4485459;32;34398;-64
2021/07/13 06:44:45;;;;;;;13.27;10.73;;;;;;;29.63;43.89;99205.06;4485272;32;33999;-64
2021/07/13 06:47:13;;;;;;;14.77;10.63;;;;;;;29.62;43.92;99196.00;4485230;32;33773;-63
2021/07/13 06:49:41;;;;;;;15.27;10.63;;;;;;;29.64;43.86;99202.03;4485287;32;33529;-64
2021/07/13 06:52:08;;;;;;;12.93;10.07;;;;;;;29.66;43.88;99199.81;4483678;31;33968;-64
2021/07/13 06:54:36;;;;;;;20.17;9.75;;;;;;;29.67;43.93;99198.72;4485162;32;33362;-64
2021/07/13 06:57:03;;;;;;;19.55;10.25;;;;;;;29.67;44.01;99197.91;4485209;32;33789;-64
2021/07/13 06:59:31;;;;;;;18.30;10.35;;;;;;;29.67;43.92;99198.72;4485032;32;33505;-64
2021/07/13 07:01:59;;;;;;;18.30;10.70;;;;;;;29.67;43.94;99201.47;4485220;32;33129;-64
2021/07/13 07:04:26;;;;;;;17.98;10.63;;;;;;;29.67;43.93;99209.72;4485186;32;34798;-64
2021/07/13 07:06:54;;;;;;;12.80;9.75;;;;;;;29.67;43.90;99204.22;4484964;32;33826;-64
2021/07/13 07:09:22;;;;;;;17.77;9.70;;;;;;;29.68;43.84;99210.53;4485188;32;34380;-64
2021/07/13 07:11:49;;;;;;;12.75;10.05;;;;;;;29.67;43.67;99201.47;4483775;32;33929;-64
2021/07/13 07:14:17;;;;;;;15.38;9.60;;;;;;;29.68;43.60;99197.59;4485233;32;33640;-64
2021/07/13 07:16:45;;;;;;;17.87;9.82;;;;;;;29.67;43.76;99204.22;4485196;32;34612;-64
2021/07/13 07:19:13;;;;;;;14.80;9.32;;;;;;;29.68;43.72;99197.59;4485102;32;34172;-64
2021/07/13 07:21:40;;;;;;;16.83;9.82;;;;;;;29.69;43.65;99192.91;4485191;32;33131;-64
2021/07/13 07:24:08;;;;;;;15.98;9.68;;;;;;;29.68;43.54;99194.84;4485045;32;34128;-64
2021/07/13 07:26:36;;;;;;;12.63;9.98;;;;;;;29.69;43.59;99192.91;4485222;32;33823;-64
2021/07/13 07:29:04;;;;;;;12.68;9.25;;;;;;;29.68;43.57;99205.03;4484876;32;33209;-64
2021/07/13 07:31:32;;;;;;;13.07;9.45;;;;;;;29.69;43.58;99195.66;4484931;32;34742;-64
2021/07/13 07:33:59;;;;;;;12.73;9.80;;;;;;;29.70;43.54;99200.91;4484961;32;34713;-64
2021/07/13 07:36:27;;;;;;;14.18;9.32;;;;;;;29.70;43.50;99200.06;4484716;32;33792;-65
2021/07/13 07:38:55;;;;;;;11.95;8.93;;;;;;;29.70;43.52;99200.91;4484037;32;33514;-64
2021/07/13 07:41:23;;;;;;;12.37;9.55;;;;;;;29.70;43.46;99191.81;4484883;32;34076;-64
2021/07/13 07:43:50;;;;;;;13.27;10.23;;;;;;;29.70;43.40;99189.06;4484912;32;34114;-64
2021/07/13 07:46:18;;;;;;;11.45;9.25;;;;;;;29.70;43.33;99187.16;4484817;32;34497;-64
2021/07/13 07:48:46;;;;;;;11.32;8.35;;;;;;;29.70;43.28;99189.91;4484619;32;33730;-64
2021/07/13 07:51:13;;;;;;;14.73;9.10;;;;;;;29.71;43.33;99194.31;4484440;32;34709;-64
2021/07/13 07:53:45;;;;;;;13.77;9.32;;;;;;;29.70;43.25;99200.91;4484715;32;34848;-64
2021/07/13 07:56:12;;;;;;;13.05;9.05;;;;;;;29.71;43.21;99197.03;4484946;32;33881;-64
2021/07/13 07:58:41;;;;;;;14.90;8.85;;;;;;;29.71;43.21;99199.78;4484676;32;33640;-64
2021/07/13 08:01:08;;;;;;;10.25;8.25;;;;;;;29.71;43.20;99194.31;4484779;32;33927;-64
2021/07/13 08:03:36;;;;;;;10.15;8.70;;;;;;;29.73;43.14;99194.00;4484575;32;33677;-64
2021/07/13 08:06:04;;;;;;;13.38;8.75;;;;;;;29.72;43.15;99186.88;4484576;32;33704;-64
2021/07/13 08:08:31;;;;;;;13.20;9.27;;;;;;;29.72;43.15;99181.38;4484770;32;34355;-64
2021/07/13 08:10:59;;;;;;;11.30;8.55;;;;;;;29.72;43.12;99184.13;4484691;32;34044;-64
2021/07/13 08:13:26;;;;;;;10.80;9.02;;;;;;;29.72;43.07;99176.69;4484607;32;33795;-64
2021/07/13 08:15:57;;;;;;;9.40;7.65;;;;;;;29.72;43.09;99184.13;4484663;32;33932;-64
2021/07/13 08:18:25;;;;;;;9.38;8.25;;;;;;;29.72;43.07;99182.19;4484393;32;33978;-65
2021/07/13 08:20:52;;;;;;;10.27;8.52;;;;;;;29.71;43.08;99180.56;4484606;32;34283;-64
2021/07/13 08:23:20;;;;;;;10.85;8.75;;;;;;;29.73;43.05;99172.00;4484532;32;34860;-64
2021/07/13 08:25:47;;;;;;;13.75;8.70;;;;;;;29.71;43.09;99174.22;4484321;32;34480;-64
2021/07/13 08:28:15;;;;;;;10.98;8.93;;;;;;;29.72;43.06;99178.63;4484621;32;33717;-64
2021/07/13 08:30:42;;;;;;;12.68;8.77;;;;;;;29.72;42.99;99173.13;4484422;32;33861;-65
2021/07/13 08:33:10;;;;;;;12.90;8.98;;;;;;;29.73;42.97;99172.00;4484346;32;34852;-64
2021/07/13 08:35:37;;;;;;;10.95;8.50;;;;;;;29.72;42.96;99171.19;4483340;32;33745;-64
2021/07/13 08:38:05;;;;;;;10.90;8.55;;;;;;;29.72;43.02;99173.13;4483258;32;33496;-64
2021/07/13 08:40:33;;;;;;;10.20;8.45;;;;;;;29.72;43.01;99173.13;4484317;32;34141;-64
2021/07/13 08:43:00;;;;;;;9.48;8.45;;;;;;;29.72;42.97;99171.19;4470218;32;34281;-64
2021/07/13 08:45:27;;;;;;;14.27;8.82;;;;;;;29.71;42.95;99164.06;4478185;32;34551;-64
2021/07/13 08:47:55;;;;;;;9.57;8.02;;;;;;;29.72;43.00;99159.38;4496808;31;32683;-64
2021/07/13 08:50:23;;;;;;;12.40;8.77;;;;;;;29.74;43.06;99163.47;4496531;31;34164;-65
2021/07/13 08:52:50;;;;;;;12.93;7.93;;;;;;;29.74;43.09;99157.97;4483998;32;34736;-64
2021/07/13 08:55:18;;;;;;;14.35;7.95;;;;;;;29.76;43.12;99159.62;4484180;32;33969;-65
2021/07/13 08:57:46;;;;;;;14.40;8.20;;;;;;;29.78;43.12;99151.91;4483817;32;33679;-64
2021/07/13 09:00:17;;;;;;;13.20;8.80;;;;;;;29.77;43.27;99156.59;4483680;32;34128;-64
2021/07/13 09:03:06;;;;;;;17.08;8.80;;;;;;;29.76;43.30;99156.88;4478242;32;34805;-64
2021/07/13 09:05:39;;;;;;;10.88;8.25;;;;;;;29.81;43.26;99162.34;4467271;32;33556;-64
2021/07/13 09:08:14;;;;;;;8.93;8.02;;;;;;;29.79;43.31;99154.37;4468331;32;33524;-65
2021/07/13 09:11:08;;;;;;;10.48;7.57;;;;;;;29.77;43.35;99151.09;4468481;32;33968;-65
2021/07/13 09:13:53;;;;;;;10.73;8.50;;;;;;;29.81;43.30;99149.41;4468270;32;34787;-64
2021/07/13 09:16:33;;;;;;;10.10;8.68;;;;;;;29.80;43.38;99153.28;4468294;32;33843;-64
2021/07/13 09:19:02;;;;;;;11.40;8.88;;;;;;;29.80;43.38;99146.94;4467251;32;33079;-64
2021/07/13 09:21:33;;;;;;;12.98;8.35;;;;;;;29.81;43.40;99154.09;4468408;32;33470;-64
2021/07/13 09:24:14;;;;;;;12.82;8.52;;;;;;;29.80;43.43;99158.78;4468342;32;34145;-64
2021/07/13 09:26:48;;;;;;;10.05;8.23;;;;;;;29.84;43.40;99162.56;4468337;32;33745;-64
2021/07/13 09:29:30;;;;;;;11.57;8.00;;;;;;;29.83;43.47;99152.69;4467090;32;33505;-65
2021/07/13 09:32:20;;;;;;;13.93;8.15;;;;;;;29.85;43.48;99163.44;4468150;32;33711;-64
2021/07/13 09:34:48;;;;;;;;;;;;;;;29.87;43.40;99159.28;4468832;32;34010;-65
2021/07/13 09:37:20;;;;;;;11.73;7.68;;;;;;;29.98;43.17;99157.25;4468270;32;33911;-65
2021/07/13 09:39:58;;;;;;;8.88;7.72;;;;;;;29.87;43.40;99159.28;4476017;32;34271;-64
2021/07/13 09:42:26;;;;;;;12.52;8.25;;;;;;;29.88;43.46;99163.66;4483884;32;33826;-64
2021/07/13 09:45:14;;;;;;;9.57;7.68;;;;;;;29.86;43.49;99154.06;4481570;32;34853;-66
2021/07/13 09:47:42;;;;;;;10.85;7.55;;;;;;;29.91;43.41;99162.28;4482133;32;33607;-65
2021/07/13 09:50:10;;;;;;;12.07;8.27;;;;;;;29.88;43.53;99154.59;4483260;32;33119;-67
2021/07/13 09:52:38;;;;;;;12.05;8.35;;;;;;;29.88;43.48;99162.84;4482965;31;33976;-66
2021/07/13 09:55:16;;;;;;;12.05;7.68;;;;;;;29.88;43.45;99158.16;4483697;32;34019;-66
2021/07/13 09:57:43;;;;;;;11.93;8.23;;;;;;;29.89;43.41;99157.06;4483807;32;34500;-66
2021/07/13 10:00:11;;;;;;;9.52;7.72;;;;;;;29.88;43.39;99166.41;4483673;32;34228;-66
2021/07/13 10:02:39;;;;;;;11.95;9.25;;;;;;;29.88;43.39;99162.84;4483499;32;34892;-67
2021/07/13 10:05:07;;;;;;;11.02;8.35;;;;;;;29.88;43.37;99163.66;4483098;32;34797;-65
2021/07/13 10:07:35;;;;;;;11.07;8.30;;;;;;;29.89;43.36;99158.97;4483273;32;33950;-67
2021/07/13 10:10:04;;;;;;;16.85;8.35;;;;;;;29.88;43.34;99157.34;4469372;32;33465;-67
2021/07/13 10:12:32;;;;;;;10.68;7.90;;;;;;;29.88;43.34;99162.84;4485644;32;33866;-67
2021/07/13 10:15:00;;;;;;;12.35;7.72;;;;;;;29.87;43.32;99159.28;4485210;32;34086;-66
2021/07/13 10:17:29;;;;;;;11.07;7.70;;;;;;;29.86;43.29;99160.38;4484723;32;34012;-66
2021/07/13 10:20:08;;;;;;;12.32;8.10;;;;;;;29.86;43.29;99157.63;4485174;32;33733;-66
2021/07/13 10:22:43;;;;;;;13.07;7.95;;;;;;;29.89;43.22;99154.31;4483888;32;34057;-66
2021/07/13 10:25:11;;;;;;;9.57;7.30;;;;;;;29.88;43.21;99158.16;4484179;32;34895;-66
2021/07/13 10:27:40;;;;;;;8.65;7.32;;;;;;;29.86;43.23;99152.12;4485097;32;33908;-65
2021/07/13 10:30:17;;;;;;;10.43;7.23;;;;;;;29.85;43.24;99142.25;4485273;32;33448;-66
2021/07/13 10:32:44;;;;;;;10.15;8.05;;;;;;;29.88;43.21;99151.84;4485457;32;33884;-66
2021/07/13 10:35:22;;;;;;;9.18;7.60;;;;;;;29.86;43.19;99145.81;4485352;32;34997;-66
2021/07/13 10:37:54;;;;;;;13.18;8.02;;;;;;;29.85;43.22;99141.44;4485377;32;33796;-66
2021/07/13 10:40:24;;;;;;;10.13;7.62;;;;;;;29.84;43.21;99131.50;4484102;32;34082;-66
2021/07/13 10:42:55;;;;;;;9.63;7.82;;;;;;;29.85;43.19;99155.19;4485293;32;33895;-66
2021/07/13 10:45:29;;;;;;;10.00;7.60;;;;;;;29.85;43.19;99150.50;4485286;32;34056;-66
2021/07/13 10:48:06;;;;;;;9.77;7.47;;;;;;;29.84;43.17;99148.81;4485134;32;33944;-65
2021/07/13 10:50:40;;;;;;;8.43;7.50;;;;;;;29.84;43.18;99142.50;4484896;32;33867;-66
2021/07/13 10:53:29;;;;;;;8.32;7.47;;;;;;;29.83;43.17;99136.19;4484739;32;33940;-65
2021/07/13 10:56:03;;;;;;;10.25;7.50;;;;;;;29.84;43.16;99145.25;4485246;32;33963;-66
2021/07/13 10:58:34;;;;;;;9.48;7.28;;;;;;;29.83;43.16;99151.88;4485050;32;34687;-66
2021/07/13 11:01:24;;;;;;;9.07;7.47;;;;;;;29.82;43.16;99142.81;4484092;32;33988;-66
2021/07/13 11:04:02;;;;;;;8.52;7.05;;;;;;;29.83;43.14;99138.13;4485027;32;33861;-65
2021/07/13 11:06:54;;;;;;;12.63;7.30;;;;;;;29.85;43.10;99133.19;4484022;32;34783;-64
2021/07/13 11:09:28;;;;;;;10.05;7.18;;;;;;;29.84;43.08;99129.56;4483960;32;34348;-63
2021/07/13 11:12:06;;;;;;;10.75;7.37;;;;;;;29.83;43.01;99144.44;4485077;32;33389;-64
2021/07/13 11:14:46;;;;;;;11.55;7.45;;;;;;;29.85;43.05;99141.44;4485034;32;34010;-64
2021/07/13 11:17:18;;;;;;;8.88;7.00;;;;;;;29.82;43.04;99137.31;4485113;32;34819;-65
2021/07/13 11:19:46;;;;;;;9.32;6.82;;;;;;;29.84;43.01;99123.25;4485161;32;34766;-64
2021/07/13 11:22:17;;;;;;;7.90;6.80;;;;;;;29.83;43.01;99121.62;4484735;32;34131;-64
2021/07/13 11:24:45;;;;;;;8.88;6.93;;;;;;;29.83;42.99;99116.94;4477093;32;34568;-64
2021/07/13 11:27:12;;;;;;;8.02;6.68;;;;;;;29.82;42.97;99119.97;4468408;32;32499;-63
2021/07/13 11:29:48;;;;;;;10.90;6.80;;;;;;;29.83;43.00;99110.63;4468073;32;33917;-64
2021/07/13 11:32:16;;;;;;;8.60;7.15;;;;;;;29.83;43.00;99110.63;4468183;32;34438;-64
2021/07/13 11:34:43;;;;;;;7.72;6.93;;;;;;;29.82;42.93;99118.06;4469217;32;35277;-67
2021/07/13 11:37:11;;;;;;;9.52;6.80;;;;;;;29.82;42.93;99118.06;4476793;32;34057;-64
2021/07/13 11:39:39;;;;;;;7.85;6.95;;;;;;;29.82;42.91;99098.81;4483966;32;34510;-64